KBML/BML METAR and TAF weather

Enter ICAO airport designator
Station Type Date Time Source
KBML METAR 2022/01/26 07:52 UTC NOAA

KBML 260752Z AUTO 26005KT 10SM CLR M13/M17 A3006 RMK AO2 SLP203 T11281167 TSNO


Station Type Date Time Source
KBML Decoded METAR 2022/01/26 07:52 UTC NOAA

BERLIN MUNICIPAL AIRPORT, NH, United States (KBML) 44-35N 71-11W 345M
Jan 26, 2022 - 02:52 AM EST / 2022.01.26 0752 UTC
Wind: from the W (260 degrees) at 6 MPH (5 KT):0
Visibility: 10 mile(s):0
Sky conditions: clear
Temperature: 9.0 F (-12.8 C)
Windchill: 0 F (-18 C):1
Dew Point: 1.9 F (-16.7 C)
Relative Humidity: 72%
Pressure (altimeter): 30.06 in. Hg (1017 hPa)
ob: KBML 260752Z AUTO 26005KT 10SM CLR M13/M17 A3006 RMK AO2 SLP203 T11281167 TSNO
cycle: 8

Station Type Date Time Source
KBML TAF UTC NOAA

Error!

Example: see airport list